sensor_id;sensor_type;location;lat;lon;timestamp;temperature;humidity
41344;DHT22;27089;50.022;7.604;2024-02-23T00:00:28;5.30;99.90
41344;DHT22;27089;50.022;7.604;2024-02-23T00:02:55;5.20;99.90
41344;DHT22;27089;50.022;7.604;2024-02-23T00:05:23;5.20;99.90
41344;DHT22;27089;50.022;7.604;2024-02-23T00:07:50;5.10;99.90
41344;DHT22;27089;50.022;7.604;2024-02-23T00:10:18;5.10;99.90
41344;DHT22;27089;50.022;7.604;2024-02-23T00:12:45;5.10;99.90
41344;DHT22;27089;50.022;7.604;2024-02-23T00:15:14;5.10;99.90
41344;DHT22;27089;50.022;7.604;2024-02-23T00:17:41;5.10;99.90
41344;DHT22;27089;50.022;7.604;2024-02-23T00:20:09;5.00;99.90
41344;DHT22;27089;50.022;7.604;2024-02-23T00:22:37;4.90;99.90
41344;DHT22;27089;50.022;7.604;2024-02-23T00:25:05;4.70;99.90
41344;DHT22;27089;50.022;7.604;2024-02-23T00:27:33;4.60;99.90
41344;DHT22;27089;50.022;7.604;2024-02-23T00:30:00;4.50;99.90
41344;DHT22;27089;50.022;7.604;2024-02-23T00:32:27;4.50;99.90
41344;DHT22;27089;50.022;7.604;2024-02-23T00:34:56;4.50;99.90
41344;DHT22;27089;50.022;7.604;2024-02-23T00:37:23;4.60;99.90
41344;DHT22;27089;50.022;7.604;2024-02-23T00:39:50;4.70;99.90
41344;DHT22;27089;50.022;7.604;2024-02-23T00:42:17;4.80;99.90
41344;DHT22;27089;50.022;7.604;2024-02-23T00:44:47;4.80;99.90
41344;DHT22;27089;50.022;7.604;2024-02-23T00:47:15;4.70;99.90
41344;DHT22;27089;50.022;7.604;2024-02-23T00:49:43;4.70;99.90
41344;DHT22;27089;50.022;7.604;2024-02-23T00:52:09;4.60;99.90
41344;DHT22;27089;50.022;7.604;2024-02-23T00:54:36;4.50;99.90
41344;DHT22;27089;50.022;7.604;2024-02-23T00:57:03;4.40;99.90
41344;DHT22;27089;50.022;7.604;2024-02-23T00:59:30;4.40;99.90
41344;DHT22;27089;50.022;7.604;2024-02-23T01:01:59;4.30;99.90
41344;DHT22;27089;50.022;7.604;2024-02-23T01:04:26;4.20;99.90
41344;DHT22;27089;50.022;7.604;2024-02-23T01:06:53;4.20;99.90
41344;DHT22;27089;50.022;7.604;2024-02-23T01:09:20;4.10;99.90
41344;DHT22;27089;50.022;7.604;2024-02-23T01:11:47;4.00;99.90
41344;DHT22;27089;50.022;7.604;2024-02-23T01:14:14;4.00;99.90
41344;DHT22;27089;50.022;7.604;2024-02-23T01:16:41;3.90;99.90
41344;DHT22;27089;50.022;7.604;2024-02-23T01:19:10;3.90;99.90
41344;DHT22;27089;50.022;7.604;2024-02-23T01:21:37;3.90;99.90
41344;DHT22;27089;50.022;7.604;2024-02-23T01:24:04;3.80;99.90
41344;DHT22;27089;50.022;7.604;2024-02-23T01:26:31;3.80;99.90
41344;DHT22;27089;50.022;7.604;2024-02-23T01:28:58;3.80;99.90
41344;DHT22;27089;50.022;7.604;2024-02-23T01:31:25;3.90;99.90
41344;DHT22;27089;50.022;7.604;2024-02-23T01:33:52;3.90;99.90
41344;DHT22;27089;50.022;7.604;2024-02-23T01:36:21;3.90;99.90
41344;DHT22;27089;50.022;7.604;2024-02-23T01:38:48;4.00;99.90
41344;DHT22;27089;50.022;7.604;2024-02-23T01:41:15;4.10;99.90
41344;DHT22;27089;50.022;7.604;2024-02-23T01:43:42;4.20;99.90
41344;DHT22;27089;50.022;7.604;2024-02-23T01:46:09;4.20;99.90
41344;DHT22;27089;50.022;7.604;2024-02-23T01:48:36;4.10;99.90
41344;DHT22;27089;50.022;7.604;2024-02-23T01:51:03;4.10;99.90
41344;DHT22;27089;50.022;7.604;2024-02-23T01:53:32;4.10;99.90
41344;DHT22;27089;50.022;7.604;2024-02-23T01:55:59;4.00;99.90
41344;DHT22;27089;50.022;7.604;2024-02-23T01:58:28;4.00;99.90
41344;DHT22;27089;50.022;7.604;2024-02-23T02:00:55;4.10;99.90
41344;DHT22;27089;50.022;7.604;2024-02-23T02:03:22;4.20;99.90
41344;DHT22;27089;50.022;7.604;2024-02-23T02:05:49;4.30;99.90
41344;DHT22;27089;50.022;7.604;2024-02-23T02:08:17;4.40;99.90
41344;DHT22;27089;50.022;7.604;2024-02-23T02:10:45;4.50;99.90
41344;DHT22;27089;50.022;7.604;2024-02-23T02:13:12;4.60;99.90
41344;DHT22;27089;50.022;7.604;2024-02-23T02:15:39;4.60;99.90
41344;DHT22;27089;50.022;7.604;2024-02-23T02:18:08;4.70;99.90
41344;DHT22;27089;50.022;7.604;2024-02-23T02:20:36;4.80;99.90
41344;DHT22;27089;50.022;7.604;2024-02-23T02:23:03;4.90;99.90
41344;DHT22;27089;50.022;7.604;2024-02-23T02:25:32;4.90;99.90
41344;DHT22;27089;50.022;7.604;2024-02-23T02:28:01;4.90;99.90
41344;DHT22;27089;50.022;7.604;2024-02-23T02:30:28;4.90;99.90
41344;DHT22;27089;50.022;7.604;2024-02-23T02:32:55;4.90;99.90
41344;DHT22;27089;50.022;7.604;2024-02-23T02:35:22;4.90;99.90
41344;DHT22;27089;50.022;7.604;2024-02-23T02:37:49;4.90;99.90
41344;DHT22;27089;50.022;7.604;2024-02-23T02:40:16;4.80;99.90
41344;DHT22;27089;50.022;7.604;2024-02-23T02:42:43;4.80;99.90
41344;DHT22;27089;50.022;7.604;2024-02-23T02:45:12;4.80;99.90
41344;DHT22;27089;50.022;7.604;2024-02-23T02:47:39;4.80;99.90
41344;DHT22;27089;50.022;7.604;2024-02-23T02:50:06;4.80;99.90
41344;DHT22;27089;50.022;7.604;2024-02-23T02:52:33;4.90;99.90
41344;DHT22;27089;50.022;7.604;2024-02-23T02:55:00;4.90;99.90
41344;DHT22;27089;50.022;7.604;2024-02-23T02:57:27;4.90;99.90
41344;DHT22;27089;50.022;7.604;2024-02-23T02:59:55;4.90;99.90
41344;DHT22;27089;50.022;7.604;2024-02-23T03:02:23;4.90;99.90
41344;DHT22;27089;50.022;7.604;2024-02-23T03:04:51;4.90;99.90
41344;DHT22;27089;50.022;7.604;2024-02-23T03:07:20;4.90;99.90
41344;DHT22;27089;50.022;7.604;2024-02-23T03:09:47;4.80;99.90
41344;DHT22;27089;50.022;7.604;2024-02-23T03:12:15;4.90;99.90
41344;DHT22;27089;50.022;7.604;2024-02-23T03:14:42;4.90;99.90
41344;DHT22;27089;50.022;7.604;2024-02-23T03:17:09;4.90;99.90
41344;DHT22;27089;50.022;7.604;2024-02-23T03:19:37;4.90;99.90
41344;DHT22;27089;50.022;7.604;2024-02-23T03:22:05;4.90;99.90
41344;DHT22;27089;50.022;7.604;2024-02-23T03:24:32;4.80;99.90
41344;DHT22;27089;50.022;7.604;2024-02-23T03:26:59;4.70;99.90
41344;DHT22;27089;50.022;7.604;2024-02-23T03:29:26;4.70;99.90
41344;DHT22;27089;50.022;7.604;2024-02-23T03:31:54;4.60;99.90
41344;DHT22;27089;50.022;7.604;2024-02-23T03:34:21;4.60;99.90
41344;DHT22;27089;50.022;7.604;2024-02-23T03:36:50;4.50;99.90
41344;DHT22;27089;50.022;7.604;2024-02-23T03:39:17;4.50;99.90
41344;DHT22;27089;50.022;7.604;2024-02-23T03:41:44;4.40;99.90
41344;DHT22;27089;50.022;7.604;2024-02-23T03:44:11;4.30;99.90
41344;DHT22;27089;50.022;7.604;2024-02-23T03:46:38;4.40;99.90
41344;DHT22;27089;50.022;7.604;2024-02-23T03:49:05;4.30;99.90
41344;DHT22;27089;50.022;7.604;2024-02-23T03:51:32;4.30;99.90
41344;DHT22;27089;50.022;7.604;2024-02-23T03:54:02;4.30;99.90
41344;DHT22;27089;50.022;7.604;2024-02-23T03:56:29;4.30;99.90
41344;DHT22;27089;50.022;7.604;2024-02-23T03:58:56;4.20;99.90
41344;DHT22;27089;50.022;7.604;2024-02-23T04:01:22;4.20;99.90
41344;DHT22;27089;50.022;7.604;2024-02-23T04:03:50;4.10;99.90
41344;DHT22;27089;50.022;7.604;2024-02-23T04:06:16;4.10;99.90
41344;DHT22;27089;50.022;7.604;2024-02-23T04:08:43;4.20;99.90
41344;DHT22;27089;50.022;7.604;2024-02-23T04:11:14;4.20;99.90
41344;DHT22;27089;50.022;7.604;2024-02-23T04:13:41;4.20;99.90
41344;DHT22;27089;50.022;7.604;2024-02-23T04:16:08;4.20;99.90
41344;DHT22;27089;50.022;7.604;2024-02-23T04:18:35;4.10;99.90
41344;DHT22;27089;50.022;7.604;2024-02-23T04:21:02;4.00;99.90
41344;DHT22;27089;50.022;7.604;2024-02-23T04:23:29;4.10;99.90
41344;DHT22;27089;50.022;7.604;2024-02-23T04:25:56;4.10;99.90
41344;DHT22;27089;50.022;7.604;2024-02-23T04:28:25;4.10;99.90
41344;DHT22;27089;50.022;7.604;2024-02-23T04:30:56;4.10;99.90
41344;DHT22;27089;50.022;7.604;2024-02-23T04:33:23;4.20;99.90
41344;DHT22;27089;50.022;7.604;2024-02-23T04:35:50;4.10;99.90
41344;DHT22;27089;50.022;7.604;2024-02-23T04:38:17;4.00;99.90
41344;DHT22;27089;50.022;7.604;2024-02-23T04:40:44;4.00;99.90
41344;DHT22;27089;50.022;7.604;2024-02-23T04:43:11;3.90;99.90
41344;DHT22;27089;50.022;7.604;2024-02-23T04:45:39;3.90;99.90
41344;DHT22;27089;50.022;7.604;2024-02-23T04:48:07;3.80;99.90
41344;DHT22;27089;50.022;7.604;2024-02-23T04:50:34;3.70;99.90
41344;DHT22;27089;50.022;7.604;2024-02-23T04:53:01;3.70;99.90
41344;DHT22;27089;50.022;7.604;2024-02-23T04:55:28;3.60;99.90
41344;DHT22;27089;50.022;7.604;2024-02-23T04:57:55;3.60;99.90
41344;DHT22;27089;50.022;7.604;2024-02-23T05:00:22;3.50;99.90
41344;DHT22;27089;50.022;7.604;2024-02-23T05:02:54;3.40;99.90
41344;DHT22;27089;50.022;7.604;2024-02-23T05:05:21;3.40;99.90
41344;DHT22;27089;50.022;7.604;2024-02-23T05:07:48;3.40;99.90
41344;DHT22;27089;50.022;7.604;2024-02-23T05:10:15;3.30;99.90
41344;DHT22;27089;50.022;7.604;2024-02-23T05:12:42;3.20;99.90
41344;DHT22;27089;50.022;7.604;2024-02-23T05:15:10;3.20;99.90
41344;DHT22;27089;50.022;7.604;2024-02-23T05:17:37;3.10;99.90
41344;DHT22;27089;50.022;7.604;2024-02-23T05:20:07;3.10;99.90
41344;DHT22;27089;50.022;7.604;2024-02-23T05:22:35;3.00;99.90
41344;DHT22;27089;50.022;7.604;2024-02-23T05:25:03;3.00;99.90
41344;DHT22;27089;50.022;7.604;2024-02-23T05:27:30;3.00;99.90
41344;DHT22;27089;50.022;7.604;2024-02-23T05:29:57;3.00;99.90
41344;DHT22;27089;50.022;7.604;2024-02-23T05:32:24;3.00;99.90
41344;DHT22;27089;50.022;7.604;2024-02-23T05:34:51;2.90;99.90
41344;DHT22;27089;50.022;7.604;2024-02-23T05:37:21;2.90;99.90
41344;DHT22;27089;50.022;7.604;2024-02-23T05:39:48;2.90;99.90
41344;DHT22;27089;50.022;7.604;2024-02-23T05:42:15;2.80;99.90
41344;DHT22;27089;50.022;7.604;2024-02-23T05:44:43;2.80;99.90
41344;DHT22;27089;50.022;7.604;2024-02-23T05:47:11;2.80;99.90
41344;DHT22;27089;50.022;7.604;2024-02-23T05:49:39;2.80;99.90
41344;DHT22;27089;50.022;7.604;2024-02-23T05:52:06;2.90;99.90
41344;DHT22;27089;50.022;7.604;2024-02-23T05:54:35;2.80;99.90
41344;DHT22;27089;50.022;7.604;2024-02-23T05:57:02;2.80;99.90
41344;DHT22;27089;50.022;7.604;2024-02-23T05:59:29;2.80;99.90
41344;DHT22;27089;50.022;7.604;2024-02-23T06:01:56;2.80;99.90
41344;DHT22;27089;50.022;7.604;2024-02-23T06:04:23;2.80;99.90
41344;DHT22;27089;50.022;7.604;2024-02-23T06:06:50;2.90;99.90
41344;DHT22;27089;50.022;7.604;2024-02-23T06:09:17;2.90;99.90
41344;DHT22;27089;50.022;7.604;2024-02-23T06:11:47;2.90;99.90
41344;DHT22;27089;50.022;7.604;2024-02-23T06:14:14;2.90;99.90
41344;DHT22;27089;50.022;7.604;2024-02-23T06:16:41;2.90;99.90
41344;DHT22;27089;50.022;7.604;2024-02-23T06:19:08;2.90;99.90
41344;DHT22;27089;50.022;7.604;2024-02-23T06:21:35;2.90;99.90
41344;DHT22;27089;50.022;7.604;2024-02-23T06:24:02;2.90;99.90
41344;DHT22;27089;50.022;7.604;2024-02-23T06:26:30;2.80;99.90
41344;DHT22;27089;50.022;7.604;2024-02-23T06:28:58;2.80;99.90
41344;DHT22;27089;50.022;7.604;2024-02-23T06:31:25;2.80;99.90
41344;DHT22;27089;50.022;7.604;2024-02-23T06:33:52;2.90;99.90
41344;DHT22;27089;50.022;7.604;2024-02-23T06:36:19;2.90;99.90
41344;DHT22;27089;50.022;7.604;2024-02-23T06:38:46;3.00;99.90
41344;DHT22;27089;50.022;7.604;2024-02-23T06:41:13;3.10;99.90
41344;DHT22;27089;50.022;7.604;2024-02-23T06:43:40;3.30;99.90
41344;DHT22;27089;50.022;7.604;2024-02-23T06:46:09;3.40;99.90
41344;DHT22;27089;50.022;7.604;2024-02-23T06:48:37;3.50;99.90
41344;DHT22;27089;50.022;7.604;2024-02-23T06:51:04;3.70;99.90
41344;DHT22;27089;50.022;7.604;2024-02-23T06:53:34;3.80;99.90
41344;DHT22;27089;50.022;7.604;2024-02-23T06:56:02;4.00;99.90
41344;DHT22;27089;50.022;7.604;2024-02-23T06:58:29;4.10;99.90
41344;DHT22;27089;50.022;7.604;2024-02-23T07:00:56;4.20;99.90
41344;DHT22;27089;50.022;7.604;2024-02-23T07:03:24;4.30;99.90
41344;DHT22;27089;50.022;7.604;2024-02-23T07:05:51;4.30;99.90
41344;DHT22;27089;50.022;7.604;2024-02-23T07:08:18;4.40;99.90
41344;DHT22;27089;50.022;7.604;2024-02-23T07:10:45;4.40;99.90
41344;DHT22;27089;50.022;7.604;2024-02-23T07:13:12;4.50;99.90
41344;DHT22;27089;50.022;7.604;2024-02-23T07:15:39;4.50;99.90
41344;DHT22;27089;50.022;7.604;2024-02-23T07:18:06;4.60;99.90
41344;DHT22;27089;50.022;7.604;2024-02-23T07:20:35;4.60;99.90
41344;DHT22;27089;50.022;7.604;2024-02-23T07:23:03;4.70;99.90
41344;DHT22;27089;50.022;7.604;2024-02-23T07:25:30;4.70;99.90
41344;DHT22;27089;50.022;7.604;2024-02-23T07:27:57;4.80;99.90
41344;DHT22;27089;50.022;7.604;2024-02-23T07:30:25;4.80;99.90
41344;DHT22;27089;50.022;7.604;2024-02-23T07:32:52;4.70;99.90
41344;DHT22;27089;50.022;7.604;2024-02-23T07:35:19;4.80;99.90
41344;DHT22;27089;50.022;7.604;2024-02-23T07:37:47;4.70;99.90
41344;DHT22;27089;50.022;7.604;2024-02-23T07:40:14;4.70;99.90
41344;DHT22;27089;50.022;7.604;2024-02-23T07:42:41;4.80;99.90
41344;DHT22;27089;50.022;7.604;2024-02-23T07:45:09;4.80;99.90
41344;DHT22;27089;50.022;7.604;2024-02-23T07:47:36;4.90;99.90
41344;DHT22;27089;50.022;7.604;2024-02-23T07:50:04;4.90;99.90
41344;DHT22;27089;50.022;7.604;2024-02-23T07:52:31;4.80;99.90
41344;DHT22;27089;50.022;7.604;2024-02-23T07:55:00;4.90;99.90
41344;DHT22;27089;50.022;7.604;2024-02-23T07:57:30;4.90;99.90
41344;DHT22;27089;50.022;7.604;2024-02-23T07:59:58;5.10;99.90
41344;DHT22;27089;50.022;7.604;2024-02-23T08:02:25;5.20;99.90
41344;DHT22;27089;50.022;7.604;2024-02-23T08:04:52;5.40;99.90
41344;DHT22;27089;50.022;7.604;2024-02-23T08:07:19;5.70;99.90
41344;DHT22;27089;50.022;7.604;2024-02-23T08:09:46;5.90;99.90
41344;DHT22;27089;50.022;7.604;2024-02-23T08:12:14;6.00;99.90
41344;DHT22;27089;50.022;7.604;2024-02-23T08:14:41;6.20;99.90
41344;DHT22;27089;50.022;7.604;2024-02-23T08:17:09;6.40;99.90
41344;DHT22;27089;50.022;7.604;2024-02-23T08:19:36;6.40;99.90
41344;DHT22;27089;50.022;7.604;2024-02-23T08:22:04;6.30;99.90
41344;DHT22;27089;50.022;7.604;2024-02-23T08:24:31;6.20;99.90
41344;DHT22;27089;50.022;7.604;2024-02-23T08:26:58;6.10;99.90
41344;DHT22;27089;50.022;7.604;2024-02-23T08:29:27;6.10;99.90
41344;DHT22;27089;50.022;7.604;2024-02-23T08:31:54;6.00;99.90
41344;DHT22;27089;50.022;7.604;2024-02-23T08:34:21;5.90;99.90
41344;DHT22;27089;50.022;7.604;2024-02-23T08:36:48;5.90;99.90
41344;DHT22;27089;50.022;7.604;2024-02-23T08:39:15;5.90;99.90
41344;DHT22;27089;50.022;7.604;2024-02-23T08:41:42;5.80;99.90
41344;DHT22;27089;50.022;7.604;2024-02-23T08:44:09;5.80;99.90
41344;DHT22;27089;50.022;7.604;2024-02-23T08:46:37;5.80;99.90
41344;DHT22;27089;50.022;7.604;2024-02-23T08:49:05;5.80;99.90
41344;DHT22;27089;50.022;7.604;2024-02-23T08:51:32;5.80;99.90
41344;DHT22;27089;50.022;7.604;2024-02-23T08:53:59;5.80;99.90
41344;DHT22;27089;50.022;7.604;2024-02-23T08:56:30;5.80;99.90
41344;DHT22;27089;50.022;7.604;2024-02-23T08:58:57;5.90;99.90
41344;DHT22;27089;50.022;7.604;2024-02-23T09:01:24;5.90;99.90
41344;DHT22;27089;50.022;7.604;2024-02-23T09:03:52;6.00;99.90
41344;DHT22;27089;50.022;7.604;2024-02-23T09:06:19;6.00;99.90
41344;DHT22;27089;50.022;7.604;2024-02-23T09:08:46;6.00;99.90
41344;DHT22;27089;50.022;7.604;2024-02-23T09:11:13;6.50;99.90
41344;DHT22;27089;50.022;7.604;2024-02-23T09:13:41;7.20;99.90
41344;DHT22;27089;50.022;7.604;2024-02-23T09:16:08;9.40;99.90
41344;DHT22;27089;50.022;7.604;2024-02-23T09:18:36;11.10;99.90
41344;DHT22;27089;50.022;7.604;2024-02-23T09:21:04;11.60;99.90
41344;DHT22;27089;50.022;7.604;2024-02-23T09:23:31;10.50;99.90
41344;DHT22;27089;50.022;7.604;2024-02-23T09:25:59;10.90;99.90
41344;DHT22;27089;50.022;7.604;2024-02-23T09:28:26;11.10;99.90
41344;DHT22;27089;50.022;7.604;2024-02-23T09:30:53;11.20;99.90
41344;DHT22;27089;50.022;7.604;2024-02-23T09:33:20;10.90;99.90
41344;DHT22;27089;50.022;7.604;2024-02-23T09:35:47;11.80;99.90
41344;DHT22;27089;50.022;7.604;2024-02-23T09:38:15;11.90;99.90
41344;DHT22;27089;50.022;7.604;2024-02-23T09:40:42;12.50;99.90
41344;DHT22;27089;50.022;7.604;2024-02-23T09:43:11;13.00;99.90
41344;DHT22;27089;50.022;7.604;2024-02-23T09:45:39;13.30;99.90
41344;DHT22;27089;50.022;7.604;2024-02-23T09:48:07;13.60;99.90
41344;DHT22;27089;50.022;7.604;2024-02-23T09:50:35;12.70;99.90
41344;DHT22;27089;50.022;7.604;2024-02-23T09:53:04;12.10;99.90
41344;DHT22;27089;50.022;7.604;2024-02-23T09:55:35;11.40;99.90
41344;DHT22;27089;50.022;7.604;2024-02-23T09:58:03;10.40;99.90
41344;DHT22;27089;50.022;7.604;2024-02-23T10:00:31;9.70;99.90
41344;DHT22;27089;50.022;7.604;2024-02-23T10:03:00;9.10;99.90
41344;DHT22;27089;50.022;7.604;2024-02-23T10:05:30;8.50;99.90
41344;DHT22;27089;50.022;7.604;2024-02-23T10:07:57;8.40;99.90
41344;DHT22;27089;50.022;7.604;2024-02-23T10:10:29;8.60;99.90
41344;DHT22;27089;50.022;7.604;2024-02-23T10:12:58;8.90;99.90
41344;DHT22;27089;50.022;7.604;2024-02-23T10:15:26;9.00;99.90
41344;DHT22;27089;50.022;7.604;2024-02-23T10:17:53;8.90;99.90
41344;DHT22;27089;50.022;7.604;2024-02-23T10:20:20;8.50;99.90
41344;DHT22;27089;50.022;7.604;2024-02-23T10:22:47;8.50;99.90
41344;DHT22;27089;50.022;7.604;2024-02-23T10:25:15;8.70;99.90
41344;DHT22;27089;50.022;7.604;2024-02-23T10:27:42;8.80;99.90
41344;DHT22;27089;50.022;7.604;2024-02-23T10:30:13;8.70;99.90
41344;DHT22;27089;50.022;7.604;2024-02-23T10:32:41;9.10;99.90
41344;DHT22;27089;50.022;7.604;2024-02-23T10:35:10;9.50;99.90
41344;DHT22;27089;50.022;7.604;2024-02-23T10:37:37;9.90;99.90
41344;DHT22;27089;50.022;7.604;2024-02-23T10:40:07;10.30;99.90
41344;DHT22;27089;50.022;7.604;2024-02-23T10:42:38;10.40;99.90
41344;DHT22;27089;50.022;7.604;2024-02-23T10:45:06;10.70;99.90
41344;DHT22;27089;50.022;7.604;2024-02-23T10:47:36;11.00;99.90
41344;DHT22;27089;50.022;7.604;2024-02-23T10:50:04;11.10;99.90
41344;DHT22;27089;50.022;7.604;2024-02-23T10:52:33;10.90;99.90
41344;DHT22;27089;50.022;7.604;2024-02-23T10:55:01;10.40;99.90
41344;DHT22;27089;50.022;7.604;2024-02-23T10:57:30;9.90;99.90
41344;DHT22;27089;50.022;7.604;2024-02-23T10:59:58;9.90;99.90
41344;DHT22;27089;50.022;7.604;2024-02-23T11:02:28;10.00;99.90
41344;DHT22;27089;50.022;7.604;2024-02-23T11:04:58;9.60;99.90
41344;DHT22;27089;50.022;7.604;2024-02-23T11:07:26;9.40;99.90
41344;DHT22;27089;50.022;7.604;2024-02-23T11:09:54;9.10;99.90
41344;DHT22;27089;50.022;7.604;2024-02-23T11:12:25;8.90;99.90
41344;DHT22;27089;50.022;7.604;2024-02-23T11:14:56;8.80;99.90
41344;DHT22;27089;50.022;7.604;2024-02-23T11:17:26;8.80;99.90
41344;DHT22;27089;50.022;7.604;2024-02-23T11:19:54;9.10;99.90
41344;DHT22;27089;50.022;7.604;2024-02-23T11:22:25;9.00;99.90
41344;DHT22;27089;50.022;7.604;2024-02-23T11:24:53;8.90;99.90
41344;DHT22;27089;50.022;7.604;2024-02-23T11:27:20;8.70;99.90
41344;DHT22;27089;50.022;7.604;2024-02-23T11:29:47;8.50;99.90
41344;DHT22;27089;50.022;7.604;2024-02-23T11:32:15;8.40;99.90
41344;DHT22;27089;50.022;7.604;2024-02-23T11:34:52;8.30;99.90
41344;DHT22;27089;50.022;7.604;2024-02-23T11:37:20;8.20;99.90
41344;DHT22;27089;50.022;7.604;2024-02-23T11:39:49;8.20;99.90
41344;DHT22;27089;50.022;7.604;2024-02-23T11:42:18;8.20;99.90
41344;DHT22;27089;50.022;7.604;2024-02-23T11:44:45;8.20;99.90
41344;DHT22;27089;50.022;7.604;2024-02-23T11:47:12;8.10;99.90
41344;DHT22;27089;50.022;7.604;2024-02-23T11:49:39;8.00;99.90
41344;DHT22;27089;50.022;7.604;2024-02-23T11:52:06;7.90;99.90
41344;DHT22;27089;50.022;7.604;2024-02-23T11:54:33;7.90;99.90
41344;DHT22;27089;50.022;7.604;2024-02-23T11:57:03;7.90;99.90
41344;DHT22;27089;50.022;7.604;2024-02-23T11:59:30;8.00;99.90
41344;DHT22;27089;50.022;7.604;2024-02-23T12:01:57;8.10;99.90
41344;DHT22;27089;50.022;7.604;2024-02-23T12:04:26;8.20;99.90
41344;DHT22;27089;50.022;7.604;2024-02-23T12:06:54;8.50;99.90
41344;DHT22;27089;50.022;7.604;2024-02-23T12:09:22;9.00;99.90
41344;DHT22;27089;50.022;7.604;2024-02-23T12:11:50;9.30;99.90
41344;DHT22;27089;50.022;7.604;2024-02-23T12:14:18;9.30;99.90
41344;DHT22;27089;50.022;7.604;2024-02-23T12:16:45;9.30;99.90
41344;DHT22;27089;50.022;7.604;2024-02-23T12:19:12;9.50;99.90
41344;DHT22;27089;50.022;7.604;2024-02-23T12:21:39;9.50;99.90
41344;DHT22;27089;50.022;7.604;2024-02-23T12:24:06;9.40;99.90
41344;DHT22;27089;50.022;7.604;2024-02-23T12:26:34;9.50;99.90
41344;DHT22;27089;50.022;7.604;2024-02-23T12:29:01;9.70;99.90
41344;DHT22;27089;50.022;7.604;2024-02-23T12:31:31;9.70;99.90
41344;DHT22;27089;50.022;7.604;2024-02-23T12:33:58;9.50;99.90
41344;DHT22;27089;50.022;7.604;2024-02-23T12:36:25;9.50;99.90
41344;DHT22;27089;50.022;7.604;2024-02-23T12:38:53;9.60;99.90
41344;DHT22;27089;50.022;7.604;2024-02-23T12:41:20;9.60;99.90
41344;DHT22;27089;50.022;7.604;2024-02-23T12:43:47;9.70;99.90
41344;DHT22;27089;50.022;7.604;2024-02-23T12:46:14;9.80;99.90
41344;DHT22;27089;50.022;7.604;2024-02-23T12:48:42;9.90;99.90
41344;DHT22;27089;50.022;7.604;2024-02-23T12:51:09;10.00;99.90
41344;DHT22;27089;50.022;7.604;2024-02-23T12:53:38;9.90;99.90
41344;DHT22;27089;50.022;7.604;2024-02-23T12:56:07;9.70;99.90
41344;DHT22;27089;50.022;7.604;2024-02-23T12:58:35;9.60;99.90
41344;DHT22;27089;50.022;7.604;2024-02-23T13:01:03;9.40;99.90
41344;DHT22;27089;50.022;7.604;2024-02-23T13:03:30;9.20;99.90
41344;DHT22;27089;50.022;7.604;2024-02-23T13:05:58;9.20;99.90
41344;DHT22;27089;50.022;7.604;2024-02-23T13:08:26;9.10;99.90
41344;DHT22;27089;50.022;7.604;2024-02-23T13:10:54;9.00;99.90
41344;DHT22;27089;50.022;7.604;2024-02-23T13:13:21;9.00;99.90
41344;DHT22;27089;50.022;7.604;2024-02-23T13:15:50;9.00;99.90
41344;DHT22;27089;50.022;7.604;2024-02-23T13:18:17;9.00;99.90
41344;DHT22;27089;50.022;7.604;2024-02-23T13:20:45;9.00;99.90
41344;DHT22;27089;50.022;7.604;2024-02-23T13:23:14;9.00;99.90
41344;DHT22;27089;50.022;7.604;2024-02-23T13:25:42;9.10;99.90
41344;DHT22;27089;50.022;7.604;2024-02-23T13:28:09;9.20;99.90
41344;DHT22;27089;50.022;7.604;2024-02-23T13:30:36;9.20;99.90
41344;DHT22;27089;50.022;7.604;2024-02-23T13:33:05;9.00;99.90
41344;DHT22;27089;50.022;7.604;2024-02-23T13:35:33;8.80;99.90
41344;DHT22;27089;50.022;7.604;2024-02-23T13:38:00;8.60;99.90
41344;DHT22;27089;50.022;7.604;2024-02-23T13:40:30;8.60;99.90
41344;DHT22;27089;50.022;7.604;2024-02-23T13:42:57;8.80;99.90
41344;DHT22;27089;50.022;7.604;2024-02-23T13:45:24;8.90;99.90
41344;DHT22;27089;50.022;7.604;2024-02-23T13:47:59;9.00;99.90
41344;DHT22;27089;50.022;7.604;2024-02-23T13:50:27;9.00;99.90
41344;DHT22;27089;50.022;7.604;2024-02-23T13:52:54;9.00;99.90
41344;DHT22;27089;50.022;7.604;2024-02-23T13:55:21;9.10;99.90
41344;DHT22;27089;50.022;7.604;2024-02-23T13:57:50;9.10;99.90
41344;DHT22;27089;50.022;7.604;2024-02-23T14:00:18;9.10;99.90
41344;DHT22;27089;50.022;7.604;2024-02-23T14:02:46;9.00;99.90
41344;DHT22;27089;50.022;7.604;2024-02-23T14:05:13;8.90;99.90
41344;DHT22;27089;50.022;7.604;2024-02-23T14:07:40;8.80;99.90
41344;DHT22;27089;50.022;7.604;2024-02-23T14:10:08;8.80;99.90
41344;DHT22;27089;50.022;7.604;2024-02-23T14:12:35;9.10;99.90
41344;DHT22;27089;50.022;7.604;2024-02-23T14:15:04;9.40;99.90
41344;DHT22;27089;50.022;7.604;2024-02-23T14:17:32;9.50;99.90
41344;DHT22;27089;50.022;7.604;2024-02-23T14:20:00;9.50;99.90
41344;DHT22;27089;50.022;7.604;2024-02-23T14:22:27;9.30;99.90
41344;DHT22;27089;50.022;7.604;2024-02-23T14:24:54;9.20;99.90
41344;DHT22;27089;50.022;7.604;2024-02-23T14:27:21;9.20;99.90
41344;DHT22;27089;50.022;7.604;2024-02-23T14:29:48;9.20;99.90
41344;DHT22;27089;50.022;7.604;2024-02-23T14:32:17;9.10;99.90
41344;DHT22;27089;50.022;7.604;2024-02-23T14:34:44;9.10;99.90
41344;DHT22;27089;50.022;7.604;2024-02-23T14:37:11;9.30;99.90
41344;DHT22;27089;50.022;7.604;2024-02-23T14:39:38;9.50;99.90
41344;DHT22;27089;50.022;7.604;2024-02-23T14:42:06;9.50;99.90
41344;DHT22;27089;50.022;7.604;2024-02-23T14:44:34;9.40;99.90
41344;DHT22;27089;50.022;7.604;2024-02-23T14:47:01;9.30;99.90
41344;DHT22;27089;50.022;7.604;2024-02-23T14:49:29;9.10;99.90
41344;DHT22;27089;50.022;7.604;2024-02-23T14:51:56;9.10;99.90
41344;DHT22;27089;50.022;7.604;2024-02-23T14:54:23;9.10;99.90
41344;DHT22;27089;50.022;7.604;2024-02-23T14:56:51;9.10;99.90
41344;DHT22;27089;50.022;7.604;2024-02-23T14:59:18;9.10;99.90
41344;DHT22;27089;50.022;7.604;2024-02-23T15:01:45;9.10;99.90
41344;DHT22;27089;50.022;7.604;2024-02-23T15:04:12;9.00;99.90
41344;DHT22;27089;50.022;7.604;2024-02-23T15:06:40;8.90;99.90
41344;DHT22;27089;50.022;7.604;2024-02-23T15:09:07;8.80;99.90
41344;DHT22;27089;50.022;7.604;2024-02-23T15:11:35;8.70;99.90
41344;DHT22;27089;50.022;7.604;2024-02-23T15:14:02;8.60;99.90
41344;DHT22;27089;50.022;7.604;2024-02-23T15:16:29;8.60;99.90
41344;DHT22;27089;50.022;7.604;2024-02-23T15:18:56;8.50;99.90
41344;DHT22;27089;50.022;7.604;2024-02-23T15:21:24;8.50;99.90
41344;DHT22;27089;50.022;7.604;2024-02-23T15:23:53;8.50;99.90
41344;DHT22;27089;50.022;7.604;2024-02-23T15:26:21;8.50;99.90
41344;DHT22;27089;50.022;7.604;2024-02-23T15:28:49;8.50;99.90
41344;DHT22;27089;50.022;7.604;2024-02-23T15:31:16;8.40;99.90
41344;DHT22;27089;50.022;7.604;2024-02-23T15:33:43;8.30;99.90
41344;DHT22;27089;50.022;7.604;2024-02-23T15:36:11;8.30;99.90
41344;DHT22;27089;50.022;7.604;2024-02-23T15:38:41;8.20;99.90
41344;DHT22;27089;50.022;7.604;2024-02-23T15:41:09;8.30;99.90
41344;DHT22;27089;50.022;7.604;2024-02-23T15:43:37;8.30;99.90
41344;DHT22;27089;50.022;7.604;2024-02-23T15:46:04;8.20;99.90